PWSweather.com
Personal Weather Stations
Station Observations

BunburyAU

Lat: -33.378333, Lon: 115.651667

Elevation: 95

Station Type: Fine Offset WH2081

http://www.sedgleymanor.com/wx/index.htm

Latest ConditionsUpdated 7:30:01 AM GMT+08:08 Friday, Oct 31, 2014
Currently Today's Max Today's Min Today's Average
Temperature 66.0°F18.9°C 66.0°F18.9°C 50.5°F10.3°C 57.2°F14.0°C
Dew Point 49.9°F9.9°C 58.8°F14.9°C 48.2°F9.0°C 53.3°F11.8°C
Winds 3.1 mph SE5.0 kmh SE 3.5 mph SW5.6 kmh SW - 1.9 mph 3.1 kmh
Wind Gusts 6.0 mph9.7 kmh 13.0 mph20.9 kmh - -
Humidity 56% 100% 56% 88%
Pressure 30.02 in1016.6 mb 30.02 in1016.6 mb 29.89 in1012.2 mb -
Precipitation - 0.05 in1.3 mm - -
Hour Temp Dew Point Humidity Winds Wind Gusts Pressure Precip Precip Rate Daily Precip Total
07:30 AM 66.0°F18.9°C 49.9°F9.9°C 56% 3.1 mph SE5.0 kmh SE 6.0 mph9.7 kmh 30.02 in1016.6 mb 0.00 in0.0 mm 0.00 in/hr0.0 mm/hr 0.05 in1.3 mm
07:15 AM 65.3°F18.5°C 50.2°F10.1°C 58% 2.8 mph S4.5 kmh S 7.6 mph12.2 kmh 30.01 in1016.3 mb 0.00 in0.0 mm 0.00 in/hr0.0 mm/hr 0.05 in1.3 mm
07:00 AM 64.6°F18.1°C 49.9°F9.9°C 59% 2.0 mph SE3.2 kmh SE 6.9 mph11.1 kmh 30.00 in1015.9 mb 0.00 in0.0 mm 0.00 in/hr0.0 mm/hr 0.05 in1.3 mm
06:45 AM 63.9°F17.7°C 49.3°F9.6°C 59% 1.6 mph SE2.6 kmh SE 4.5 mph7.2 kmh 30.01 in1016.3 mb 0.00 in0.0 mm 0.00 in/hr0.0 mm/hr 0.05 in1.3 mm
06:30 AM 63.1°F17.3°C 52.4°F11.3°C 68% 0.9 mph SE1.4 kmh SE 3.8 mph6.1 kmh 30.01 in1016.3 mb 0.00 in0.0 mm 0.00 in/hr0.0 mm/hr 0.05 in1.3 mm
06:15 AM 58.5°F14.7°C 50.2°F10.1°C 74% 1.4 mph SE2.3 kmh SE 4.5 mph7.2 kmh 30.00 in1015.9 mb 0.00 in0.0 mm 0.00 in/hr0.0 mm/hr 0.05 in1.3 mm
06:00 AM 55.8°F13.2°C 51.0°F10.6°C 84% 1.4 mph SSE2.3 kmh SSE 3.8 mph6.1 kmh 29.99 in1015.6 mb 0.00 in0.0 mm 0.00 in/hr0.0 mm/hr 0.05 in1.3 mm
05:45 AM 52.9°F11.6°C 50.3°F10.2°C 91% 1.3 mph S2.1 kmh S 3.8 mph6.1 kmh 29.99 in1015.6 mb 0.00 in0.0 mm 0.00 in/hr0.0 mm/hr 0.05 in1.3 mm
05:30 AM 50.7°F10.4°C 48.8°F9.3°C 93% 1.8 mph SE2.9 kmh SE 3.8 mph6.1 kmh 29.98 in1015.2 mb 0.00 in0.0 mm 0.00 in/hr0.0 mm/hr 0.05 in1.3 mm
05:15 AM 50.5°F10.3°C 48.3°F9.1°C 92% 0.9 mph S1.4 kmh S 4.5 mph7.2 kmh 29.98 in1015.2 mb 0.00 in0.0 mm 0.00 in/hr0.0 mm/hr 0.05 in1.3 mm
05:00 AM 50.7°F10.4°C 48.2°F9.0°C 91% 0.2 mph S0.3 kmh S 2.2 mph3.5 kmh 29.96 in1014.6 mb 0.00 in0.0 mm 0.00 in/hr0.0 mm/hr 0.05 in1.3 mm
04:45 AM 51.1°F10.6°C 48.5°F9.2°C 91% 0.4 mph SSW0.6 kmh SSW 2.2 mph3.5 kmh 29.96 in1014.6 mb 0.00 in0.0 mm 0.00 in/hr0.0 mm/hr 0.05 in1.3 mm
04:30 AM 52.0°F11.1°C 49.1°F9.5°C 90% 1.0 mph S1.6 kmh S 4.5 mph7.2 kmh 29.96 in1014.6 mb 0.00 in0.0 mm 0.00 in/hr0.0 mm/hr 0.05 in1.3 mm
04:15 AM 52.7°F11.5°C 49.9°F9.9°C 90% 1.1 mph SW1.8 kmh SW 3.8 mph6.1 kmh 29.95 in1014.2 mb 0.00 in0.0 mm 0.00 in/hr0.0 mm/hr 0.05 in1.3 mm
04:00 AM 53.4°F11.9°C 50.6°F10.3°C 90% 1.5 mph SSE2.4 kmh SSE 6.9 mph11.1 kmh 29.94 in1013.9 mb 0.00 in0.0 mm 0.00 in/hr0.0 mm/hr 0.05 in1.3 mm
03:45 AM 54.0°F12.2°C 51.1°F10.6°C 90% 1.2 mph S1.9 kmh S 6.9 mph11.1 kmh 29.94 in1013.9 mb 0.00 in0.0 mm 0.00 in/hr0.0 mm/hr 0.05 in1.3 mm
03:30 AM 54.5°F12.5°C 52.5°F11.4°C 93% 1.7 mph SW2.7 kmh SW 5.4 mph8.7 kmh 29.93 in1013.5 mb 0.00 in0.0 mm 0.00 in/hr0.0 mm/hr 0.05 in1.3 mm
03:15 AM 55.2°F12.9°C 54.1°F12.3°C 96% 2.3 mph S3.7 kmh S 8.3 mph13.4 kmh 29.93 in1013.5 mb 0.00 in0.0 mm 0.00 in/hr0.0 mm/hr 0.05 in1.3 mm
03:00 AM 55.6°F13.1°C 54.5°F12.5°C 96% 2.3 mph S3.7 kmh S 8.3 mph13.4 kmh 29.92 in1013.2 mb 0.00 in0.0 mm 0.00 in/hr0.0 mm/hr 0.05 in1.3 mm
02:45 AM 55.9°F13.3°C 55.1°F12.8°C 97% 1.7 mph SW2.7 kmh SW 5.4 mph8.7 kmh 29.91 in1012.9 mb 0.00 in0.0 mm 0.00 in/hr0.0 mm/hr 0.05 in1.3 mm
02:30 AM 56.3°F13.5°C 56.3°F13.5°C 100% 2.0 mph SSW3.2 kmh SSW 5.4 mph8.7 kmh 29.91 in1012.9 mb 0.00 in0.0 mm 0.00 in/hr0.0 mm/hr 0.05 in1.3 mm
02:15 AM 56.8°F13.8°C 56.6°F13.7°C 99% 2.5 mph SW4.0 kmh SW 8.3 mph13.4 kmh 29.91 in1012.9 mb 0.00 in0.0 mm 0.00 in/hr0.0 mm/hr 0.05 in1.3 mm
02:00 AM 57.4°F14.1°C 57.4°F14.1°C 100% 1.6 mph SSE2.6 kmh SSE 6.0 mph9.7 kmh 29.90 in1012.5 mb 0.00 in0.0 mm 0.00 in/hr0.0 mm/hr 0.05 in1.3 mm
01:45 AM 57.9°F14.4°C 57.9°F14.4°C 100% 2.2 mph S3.5 kmh S 7.6 mph12.2 kmh 29.90 in1012.5 mb 0.00 in0.0 mm 0.00 in/hr0.0 mm/hr 0.05 in1.3 mm
01:30 AM 58.5°F14.7°C 58.5°F14.7°C 100% 1.8 mph SW2.9 kmh SW 6.0 mph9.7 kmh 29.90 in1012.5 mb 0.00 in0.0 mm 0.00 in/hr0.0 mm/hr 0.05 in1.3 mm
01:15 AM 59.0°F15.0°C 58.2°F14.6°C 97% 3.1 mph SW5.0 kmh SW 9.8 mph15.8 kmh 29.90 in1012.5 mb 0.05 in1.3 mm 0.00 in/hr0.0 mm/hr 0.05 in1.3 mm
01:00 AM 59.5°F15.3°C 58.7°F14.8°C 97% 2.8 mph SW4.5 kmh SW 9.8 mph15.8 kmh 29.90 in1012.5 mb 0.05 in1.3 mm 0.00 in/hr0.0 mm/hr 0.05 in1.3 mm
12:45 AM 59.9°F15.5°C 58.8°F14.9°C 96% 3.0 mph SSW4.8 kmh SSW 7.6 mph12.2 kmh 29.90 in1012.5 mb 0.05 in1.3 mm 0.00 in/hr0.0 mm/hr 0.05 in1.3 mm
12:30 AM 60.8°F16.0°C 58.8°F14.9°C 93% 3.5 mph SW5.6 kmh SW 11.4 mph18.3 kmh 29.90 in1012.5 mb 0.07 in1.8 mm 0.20 in/hr5.1 mm/hr 0.05 in1.3 mm
12:15 AM 60.8°F16.0°C 58.8°F14.9°C 93% 3.3 mph SSW5.3 kmh SSW 13.0 mph20.9 kmh 29.90 in1012.5 mb 0.02 in0.5 mm 0.00 in/hr0.0 mm/hr 0.02 in0.5 mm
12:00 AM 60.6°F15.9°C 58.6°F14.8°C 93% 2.6 mph SW4.2 kmh SW 10.7 mph17.2 kmh 29.89 in1012.2 mb 0.02 in0.5 mm 0.00 in/hr0.0 mm/hr 0.02 in0.5 mm